Portada
METAR-TAF:

METAR-TAF

Aeroports :

Orange Municipal Airport

Orange, Massachusetts, Estats Units d'Amèrica

latitud: 42-34-18N, longitud: 072-16-39W, altitud: 169 m

Observació

L'informe es va fer fa 29 minuts, a les 12:52 UTC
Vent 8 kt del Sud
Temperatura 19°C
Humitat 83%
Pressió 1013 hPa
Visibilitat: 16.1 km
Cel ennuvolat a una alçada de 800 ft
Cel ennuvolat a una alçada de 5000 ft
Cel cobert a una alçada de 11000 ft

METAR: KORE 161252Z AUTO 17008KT 10SM BKN008 BKN050 OVC110 19/16 A2990 RMK AO2 SLP124 T01890161

Hora: 09:21 (13:21 UTC)


TAF: manca

Observacions i pronòstics meteorològics de més de 4000 aeroports (METAR i TAF).

Les estacions disponibles són els punts grocs i vermells al mapa.

Posi el ratolí al punt desitjat per veure el nom de l'estació.

Feu clic per veure les observacions i els pronòstics meteorològics.

Per canviar el mapa: feu clic els botons verds amb una creu de color negre per apropar; al botó verd amb un guió per allunyar la imatge; o en les fletxes verdes per a mapes adjacents.


METAR-TAF: